Eaglesham, Canada
Current Conditions -  °F | °C
As of 9:08 AM on Monday 24 Nov 2014 (Local Time) from CYPE Reporting Station
Light Snow Light Snow  
Wind Chill: -2°   Ceiling: 700
Heat Index:   Visibility: 15mi
Dew Point:   Wind: 5mph
Humidity: 85%   Direction: 60°ENE
Pressure: 29.95"   Gusts: NA
Location:  55.78°N, 117.9°W
Report Text: CYPE 241608Z 06004KT 15SM -SN OVC007 M14/M16 A2995 RMK SC8 SLP189
Loading
Personal Weather Stations






























Interactive Weather Map New forecast layout! Learn more

10-Day Weather Forecast

Advertisements
Track Severe Weather on mobile